Time;durP1;ratioP1;P1;durP2;ratioP2;P2;SDS_P1;SDS_P2;PMS_P1;PMS_P2;Temp;Humidity;BMP_temperature;BMP_pressure;BME280_temperature;BME280_humidity;BME280_pressure;Samples;Min_cycle;Max_cycle;Signal;HPM_P1;HPM_P2
2022/06/18 00:01:33;;;;;;;0.83;0.70;;;19.90;78.70;;;;;;5075727;28;20447;-81
2022/06/18 00:04:02;;;;;;;0.60;0.60;;;19.80;78.70;;;;;;5075388;28;20519;-80
2022/06/18 00:06:31;;;;;;;0.50;0.50;;;19.80;79.00;;;;;;5075402;28;20456;-80
2022/06/18 00:08:59;;;;;;;1.10;0.60;;;19.80;79.10;;;;;;5075950;28;20922;-80
2022/06/18 00:14:11;;;;;;;1.17;0.67;;;19.70;79.80;;;;;;5075411;28;20448;-80
2022/06/18 00:16:38;;;;;;;0.60;0.50;;;19.70;80.20;;;;;;5075164;28;20452;-80
2022/06/18 00:19:06;;;;;;;0.60;0.50;;;19.70;80.60;;;;;;5074664;28;20449;-80
2022/06/18 00:21:33;;;;;;;0.60;0.60;;;19.70;80.80;;;;;;5074560;28;20460;-80
2022/06/18 00:24:00;;;;;;;0.70;0.50;;;19.70;81.00;;;;;;5074660;28;20452;-80
2022/06/18 00:26:27;;;;;;;0.63;0.60;;;19.60;80.80;;;;;;5074989;28;20453;-80
2022/06/18 00:28:54;;;;;;;0.93;0.73;;;19.60;81.00;;;;;;5075041;28;20449;-80
2022/06/18 00:31:21;;;;;;;0.77;0.60;;;19.60;80.90;;;;;;5074838;28;20452;-80
2022/06/18 00:33:47;;;;;;;0.53;0.53;;;19.60;81.50;;;;;;5074727;28;20448;-80
2022/06/18 00:36:18;;;;;;;1.00;0.53;;;19.60;81.80;;;;;;5074539;28;20579;-80
2022/06/18 00:38:46;;;;;;;1.43;0.70;;;19.60;81.80;;;;;;5075296;28;20782;-80
2022/06/18 00:41:17;;;;;;;1.03;0.90;;;19.60;82.20;;;;;;5074639;28;20445;-80
2022/06/18 00:43:50;;;;;;;1.50;0.80;;;19.60;82.80;;;;;;5074556;28;20444;-80
2022/06/18 00:46:25;;;;;;;0.77;0.50;;;19.50;82.90;;;;;;5074585;28;20430;-80
2022/06/18 00:49:00;;;;;;;0.70;0.70;;;19.50;83.30;;;;;;5074149;28;20946;-82
2022/06/18 00:51:32;;;;;;;0.70;0.70;;;19.50;82.70;;;;;;5074509;28;20433;-81
2022/06/18 00:54:06;;;;;;;0.90;0.60;;;19.50;82.40;;;;;;5074117;28;20444;-81
2022/06/18 00:56:36;;;;;;;0.90;0.80;;;19.50;82.20;;;;;;5074416;28;20803;-81
2022/06/18 00:59:08;;;;;;;0.53;0.50;;;19.50;82.10;;;;;;5074380;28;20460;-81
2022/06/18 01:01:40;;;;;;;2.77;1.10;;;19.40;82.00;;;;;;5074022;28;20444;-81
2022/06/18 01:04:26;;;;;;;0.73;0.60;;;19.40;81.50;;;;;;5074235;28;20469;-81
2022/06/18 01:07:00;;;;;;;1.80;0.70;;;19.40;81.30;;;;;;5074231;28;20448;-81
2022/06/18 01:09:27;;;;;;;0.90;0.73;;;19.30;81.40;;;;;;5074080;28;20467;-81
2022/06/18 01:11:56;;;;;;;0.63;0.57;;;19.30;81.40;;;;;;5073944;28;20952;-81
2022/06/18 01:14:24;;;;;;;0.70;0.70;;;19.30;81.30;;;;;;5073912;28;20514;-81
2022/06/18 01:16:54;;;;;;;1.00;0.77;;;19.20;81.50;;;;;;5073690;28;20479;-81
2022/06/18 01:19:29;;;;;;;0.70;0.60;;;19.30;81.40;;;;;;5073915;28;20444;-81
2022/06/18 01:22:07;;;;;;;1.23;0.77;;;19.20;81.50;;;;;;5073939;28;20432;-81
2022/06/18 01:24:38;;;;;;;1.07;0.50;;;19.20;81.80;;;;;;5073828;28;20468;-81
2022/06/18 01:27:07;;;;;;;1.27;0.47;;;19.10;81.90;;;;;;5073884;28;20483;-81
2022/06/18 01:29:34;;;;;;;0.80;0.63;;;19.10;81.80;;;;;;5073389;28;20488;-81
2022/06/18 01:32:02;;;;;;;0.73;0.63;;;19.10;81.70;;;;;;5072519;28;21051;-81
2022/06/18 01:34:29;;;;;;;0.50;0.50;;;19.10;81.80;;;;;;5073654;28;20469;-81
2022/06/18 01:36:58;;;;;;;1.47;0.77;;;19.10;82.00;;;;;;5073467;28;20475;-81
2022/06/18 01:39:31;;;;;;;0.73;0.73;;;19.10;82.00;;;;;;5073659;28;20805;-81
2022/06/18 01:42:03;;;;;;;0.50;0.50;;;19.10;82.10;;;;;;5073689;28;20436;-81
2022/06/18 01:44:38;;;;;;;0.50;0.50;;;19.10;81.50;;;;;;5073565;28;20465;-81
2022/06/18 01:47:09;;;;;;;1.10;0.73;;;19.10;80.30;;;;;;5073322;28;20803;-81
2022/06/18 01:49:41;;;;;;;4.47;0.70;;;19.10;80.10;;;;;;5073444;28;20479;-82
2022/06/18 01:52:10;;;;;;;1.03;0.70;;;19.20;80.80;;;;;;5073534;28;20435;-81
2022/06/18 01:54:42;;;;;;;0.77;0.70;;;19.20;80.70;;;;;;5074009;28;20471;-81
2022/06/18 01:57:16;;;;;;;0.50;0.50;;;19.30;81.20;;;;;;5074323;28;20491;-81
2022/06/18 01:59:46;;;;;;;0.70;0.70;;;19.30;80.90;;;;;;5073454;28;20482;-81
2022/06/18 02:02:13;;;;;;;1.33;0.63;;;19.30;80.60;;;;;;5073106;28;20948;-81
2022/06/18 02:04:41;;;;;;;0.70;0.70;;;19.40;79.80;;;;;;5073372;28;20476;-82
2022/06/18 02:07:08;;;;;;;1.00;0.60;;;19.40;79.50;;;;;;5073313;28;20470;-82
2022/06/18 02:09:40;;;;;;;0.70;0.50;;;19.40;81.00;;;;;;5073476;28;20455;-82
2022/06/18 02:12:13;;;;;;;1.00;0.70;;;19.40;80.50;;;;;;5073361;28;20409;-82
2022/06/18 02:14:46;;;;;;;0.53;0.53;;;19.40;78.20;;;;;;5072986;28;20473;-81
2022/06/18 02:17:17;;;;;;;0.53;0.53;;;19.40;78.70;;;;;;5073269;28;20441;-82
2022/06/18 02:19:48;;;;;;;0.87;0.80;;;19.50;79.80;;;;;;5073232;28;20437;-81
2022/06/18 02:22:16;;;;;;;1.13;0.70;;;19.40;81.00;;;;;;5073218;28;20437;-82
2022/06/18 02:24:43;;;;;;;1.47;0.77;;;19.40;81.30;;;;;;5073099;28;20647;-82
2022/06/18 02:27:13;;;;;;;0.83;0.73;;;19.40;82.00;;;;;;5073174;28;20444;-82
2022/06/18 02:29:43;;;;;;;1.30;0.70;;;19.40;80.80;;;;;;5074109;28;20495;-82
2022/06/18 02:32:18;;;;;;;1.10;0.80;;;19.30;80.10;;;;;;5073132;28;20437;-82
2022/06/18 02:34:45;;;;;;;1.10;0.77;;;19.40;80.50;;;;;;5072999;28;20460;-82
2022/06/18 02:37:21;;;;;;;1.20;0.70;;;19.30;81.10;;;;;;5072587;28;20995;-82
2022/06/18 02:39:58;;;;;;;0.70;0.70;;;19.30;79.50;;;;;;5073145;28;20437;-81
2022/06/18 02:42:28;;;;;;;1.17;0.87;;;19.30;80.30;;;;;;5072706;28;20908;-81
2022/06/18 02:44:57;;;;;;;1.23;0.70;;;19.30;80.60;;;;;;5076817;28;20465;-81
2022/06/18 02:47:24;;;;;;;0.50;0.50;;;19.30;81.60;;;;;;5076892;28;20441;-82
2022/06/18 02:49:57;;;;;;;1.87;1.23;;;19.30;81.60;;;;;;5077328;28;20480;-82
2022/06/18 02:52:28;;;;;;;0.80;0.80;;;19.20;82.00;;;;;;5076625;28;20801;-81
2022/06/18 02:55:00;;;;;;;0.63;0.60;;;19.20;81.90;;;;;;5076660;28;20465;-81
2022/06/18 02:57:29;;;;;;;1.27;1.10;;;19.10;82.80;;;;;;5076859;28;20433;-82
2022/06/18 02:59:57;;;;;;;0.93;0.70;;;19.00;81.30;;;;;;5076278;28;20451;-82
2022/06/18 03:02:24;;;;;;;1.53;0.83;;;19.00;82.20;;;;;;5076247;28;20808;-81
2022/06/18 03:04:52;;;;;;;0.80;0.80;;;18.90;83.40;;;;;;5076485;28;20468;-82
2022/06/18 03:07:18;;;;;;;0.90;0.90;;;18.90;83.30;;;;;;5076481;28;20444;-82
2022/06/18 03:12:29;;;;;;;0.60;0.60;;;18.80;83.80;;;;;;5076496;28;20413;-81
2022/06/18 03:14:58;;;;;;;2.30;0.80;;;18.70;84.10;;;;;;5076492;28;20461;-81
2022/06/18 03:17:25;;;;;;;0.70;0.70;;;18.70;83.80;;;;;;5076287;28;20452;-81
2022/06/18 03:19:56;;;;;;;0.70;0.70;;;18.60;85.10;;;;;;5075948;28;20455;-81
2022/06/18 03:22:23;;;;;;;0.60;0.50;;;18.60;85.10;;;;;;5076245;28;20425;-81
2022/06/18 03:24:49;;;;;;;0.60;0.60;;;18.50;85.50;;;;;;5076632;28;20469;-81
2022/06/18 03:27:18;;;;;;;0.80;0.80;;;18.50;85.30;;;;;;5076133;28;20444;-81
2022/06/18 03:29:46;;;;;;;1.53;1.07;;;18.40;85.90;;;;;;5075972;28;20445;-81
2022/06/18 03:32:14;;;;;;;1.07;0.80;;;18.40;86.30;;;;;;5076887;28;20453;-81
2022/06/18 03:34:41;;;;;;;0.60;0.60;;;18.40;86.50;;;;;;5075913;28;20465;-81
2022/06/18 03:37:08;;;;;;;0.60;0.60;;;18.30;87.40;;;;;;5075526;28;20485;-82
2022/06/18 03:39:35;;;;;;;0.60;0.60;;;18.30;86.90;;;;;;5075559;28;20810;-81
2022/06/18 03:42:02;;;;;;;0.60;0.60;;;18.30;87.70;;;;;;5075845;28;20445;-81
2022/06/18 03:44:29;;;;;;;0.50;0.50;;;18.30;87.30;;;;;;5075441;28;20972;-82
2022/06/18 03:46:57;;;;;;;0.60;0.60;;;18.30;88.00;;;;;;5075748;28;20451;-81
2022/06/18 03:49:27;;;;;;;2.23;0.70;;;18.30;87.90;;;;;;5075390;28;20952;-81
2022/06/18 03:51:54;;;;;;;1.90;1.00;;;18.30;88.70;;;;;;5075622;28;20473;-82
2022/06/18 03:54:21;;;;;;;0.87;0.87;;;18.30;88.50;;;;;;5074725;28;20468;-81
2022/06/18 03:56:49;;;;;;;0.93;0.70;;;18.40;88.70;;;;;;5075091;28;20936;-81
2022/06/18 03:59:16;;;;;;;1.23;0.50;;;18.40;89.00;;;;;;5075539;28;20444;-81
2022/06/18 04:01:43;;;;;;;1.30;0.87;;;18.40;88.90;;;;;;5075182;28;20960;-81
2022/06/18 04:04:11;;;;;;;0.77;0.63;;;18.30;89.50;;;;;;5075363;28;20468;-82
2022/06/18 04:06:41;;;;;;;1.20;0.70;;;18.30;89.20;;;;;;5075405;28;20450;-81
2022/06/18 04:09:08;;;;;;;1.27;0.80;;;18.30;89.20;;;;;;5075352;28;20456;-81
2022/06/18 04:11:35;;;;;;;1.30;0.97;;;18.40;89.50;;;;;;5074889;28;21000;-81
2022/06/18 04:14:03;;;;;;;1.27;1.17;;;18.40;90.00;;;;;;5075449;28;20528;-81
2022/06/18 04:16:30;;;;;;;1.77;1.00;;;18.40;90.20;;;;;;5074904;28;20952;-81
2022/06/18 04:18:57;;;;;;;0.70;0.70;;;18.40;90.30;;;;;;5075125;28;20535;-81
2022/06/18 04:21:24;;;;;;;0.90;0.90;;;18.50;90.40;;;;;;5074767;28;20974;-81
2022/06/18 04:23:52;;;;;;;0.70;0.70;;;18.50;90.60;;;;;;5074983;28;20523;-81
2022/06/18 04:26:18;;;;;;;1.10;0.90;;;18.50;90.30;;;;;;5074950;28;20471;-82
2022/06/18 04:28:46;;;;;;;1.20;1.00;;;18.50;90.40;;;;;;5074914;28;20453;-81
2022/06/18 04:31:13;;;;;;;0.67;0.60;;;18.50;90.40;;;;;;5074855;28;20481;-82
2022/06/18 04:33:40;;;;;;;0.83;0.83;;;18.60;90.40;;;;;;5074805;28;20453;-81
2022/06/18 04:36:07;;;;;;;2.20;0.80;;;18.60;90.40;;;;;;5074423;28;20485;-81
2022/06/18 04:38:34;;;;;;;0.80;0.80;;;18.60;90.50;;;;;;5074500;28;20960;-81
2022/06/18 04:41:02;;;;;;;1.07;0.90;;;18.70;90.60;;;;;;5074712;28;20448;-81
2022/06/18 04:43:29;;;;;;;3.60;0.90;;;18.70;90.70;;;;;;5074677;28;20459;-82
2022/06/18 04:45:56;;;;;;;1.57;0.67;;;18.80;91.00;;;;;;5074557;28;20472;-81
2022/06/18 04:48:23;;;;;;;0.70;0.70;;;18.80;91.00;;;;;;5074573;28;20502;-81
2022/06/18 04:50:50;;;;;;;1.17;0.90;;;18.90;91.10;;;;;;5074442;28;20488;-81
2022/06/18 04:53:17;;;;;;;0.80;0.80;;;19.00;90.70;;;;;;5074448;28;20441;-81
2022/06/18 04:55:44;;;;;;;1.37;0.93;;;19.00;91.20;;;;;;5074079;28;20453;-81
2022/06/18 04:58:12;;;;;;;1.00;0.80;;;19.10;91.70;;;;;;5074389;28;20458;-81
2022/06/18 05:00:40;;;;;;;0.70;0.70;;;19.10;91.80;;;;;;5074032;28;20967;-81
2022/06/18 05:03:07;;;;;;;0.93;0.60;;;19.10;91.80;;;;;;5074258;28;20453;-81
2022/06/18 05:05:36;;;;;;;1.40;0.60;;;19.20;92.00;;;;;;5073666;28;20984;-81
2022/06/18 05:08:02;;;;;;;1.00;0.70;;;19.30;91.90;;;;;;5074215;28;20451;-81
2022/06/18 05:10:29;;;;;;;2.00;0.57;;;19.30;91.60;;;;;;5073817;28;20776;-81
2022/06/18 05:12:56;;;;;;;1.20;1.10;;;19.40;91.80;;;;;;5074086;28;20449;-81
2022/06/18 05:15:24;;;;;;;0.80;0.80;;;19.50;91.80;;;;;;5073750;28;20449;-81
2022/06/18 05:17:51;;;;;;;0.53;0.53;;;19.60;91.60;;;;;;5073640;28;20491;-81
2022/06/18 05:20:21;;;;;;;1.33;0.73;;;19.80;91.50;;;;;;5073973;28;20444;-81
2022/06/18 05:22:49;;;;;;;0.90;0.60;;;19.90;91.70;;;;;;5074467;28;20499;-81
2022/06/18 05:25:16;;;;;;;1.50;1.20;;;20.00;91.80;;;;;;5073858;28;20472;-81
2022/06/18 05:27:44;;;;;;;1.03;0.90;;;20.10;91.00;;;;;;5073815;28;20449;-81
2022/06/18 05:30:15;;;;;;;0.90;0.80;;;20.20;90.70;;;;;;5073525;28;20932;-81
2022/06/18 05:32:44;;;;;;;0.93;0.93;;;20.30;90.90;;;;;;5074026;28;20475;-81
2022/06/18 05:35:12;;;;;;;0.77;0.77;;;20.40;91.10;;;;;;5073343;28;20448;-81
2022/06/18 05:37:39;;;;;;;3.40;1.00;;;20.60;91.50;;;;;;5073930;28;20452;-81
2022/06/18 05:40:08;;;;;;;2.50;1.20;;;20.70;91.90;;;;;;5073668;28;20444;-81
2022/06/18 05:42:35;;;;;;;0.83;0.83;;;20.80;91.30;;;;;;5073902;28;20878;-81
2022/06/18 05:45:02;;;;;;;1.73;0.93;;;21.00;90.80;;;;;;5073473;28;20473;-81
2022/06/18 05:47:32;;;;;;;2.37;1.40;;;21.10;89.30;;;;;;5073255;28;20455;-81
2022/06/18 05:50:01;;;;;;;0.80;0.80;;;21.20;89.40;;;;;;5073631;28;20512;-82
2022/06/18 05:52:30;;;;;;;1.10;0.83;;;21.20;86.10;;;;;;5073411;28;20488;-81
2022/06/18 05:54:57;;;;;;;0.90;0.80;;;21.40;85.70;;;;;;5073104;28;20460;-81
2022/06/18 05:57:24;;;;;;;1.20;1.10;;;21.40;85.20;;;;;;5073402;28;20451;-81
2022/06/18 05:59:51;;;;;;;1.33;0.83;;;21.50;85.10;;;;;;5073450;28;20448;-81
2022/06/18 06:02:21;;;;;;;3.83;1.07;;;21.60;85.00;;;;;;5073129;28;20962;-81
2022/06/18 06:04:48;;;;;;;1.33;1.23;;;21.80;85.70;;;;;;5073301;28;20472;-81
2022/06/18 06:07:20;;;;;;;1.17;1.10;;;21.90;84.70;;;;;;5073277;28;20499;-81
2022/06/18 06:12:31;;;;;;;1.50;1.40;;;22.30;84.70;;;;;;5073553;28;20925;-81
2022/06/18 06:15:00;;;;;;;1.20;1.10;;;22.50;84.30;;;;;;5073232;28;20222;-81
2022/06/18 06:17:27;;;;;;;1.83;1.40;;;22.70;84.70;;;;;;5073254;28;20285;-81
2022/06/18 06:20:00;;;;;;;1.23;0.93;;;22.90;84.80;;;;;;5077348;28;20574;-82
2022/06/18 06:22:28;;;;;;;1.13;1.02;;;23.20;84.00;;;;;;5077422;28;20182;-82
2022/06/18 06:24:55;;;;;;;1.10;1.00;;;23.50;84.30;;;;;;5077222;28;20221;-81
2022/06/18 06:27:22;;;;;;;1.25;1.10;;;23.80;83.70;;;;;;5077289;28;20575;-82
2022/06/18 06:29:49;;;;;;;1.00;1.00;;;24.00;83.20;;;;;;5077275;28;20209;-82
2022/06/18 06:32:15;;;;;;;1.50;1.40;;;24.10;83.00;;;;;;5077092;28;20700;-82
2022/06/18 06:34:42;;;;;;;0.70;0.70;;;24.40;83.20;;;;;;5077095;28;20230;-82
2022/06/18 06:37:10;;;;;;;1.85;1.75;;;24.70;83.00;;;;;;5076772;28;20233;-82
2022/06/18 06:39:38;;;;;;;2.38;1.10;;;24.80;82.90;;;;;;5077003;28;20205;-81
2022/06/18 06:42:06;;;;;;;1.85;1.42;;;25.20;82.70;;;;;;5077029;28;20202;-82
2022/06/18 06:44:32;;;;;;;1.20;1.10;;;25.30;80.50;;;;;;5076890;28;20230;-81
2022/06/18 06:46:59;;;;;;;0.80;0.80;;;25.50;81.80;;;;;;5077749;28;20288;-82
2022/06/18 06:49:26;;;;;;;1.25;1.10;;;25.60;80.60;;;;;;5076846;28;20202;-82
2022/06/18 06:51:53;;;;;;;1.20;1.10;;;25.80;81.00;;;;;;5076803;28;20214;-81
2022/06/18 06:54:20;;;;;;;1.30;1.20;;;26.00;81.40;;;;;;5076329;28;20230;-81
2022/06/18 06:59:32;;;;;;;1.10;1.10;;;26.30;80.10;;;;;;5076779;28;20669;-81
2022/06/18 07:02:02;;;;;;;1.48;1.38;;;26.40;79.70;;;;;;5076468;28;20194;-82
2022/06/18 07:04:29;;;;;;;1.30;1.20;;;26.50;77.40;;;;;;5076480;28;20229;-82
2022/06/18 07:06:57;;;;;;;1.30;1.20;;;26.50;79.40;;;;;;5076205;28;20593;-81
2022/06/18 07:09:24;;;;;;;1.17;1.08;;;26.40;79.00;;;;;;5076419;28;20204;-83
2022/06/18 07:11:52;;;;;;;1.58;1.48;;;26.30;77.90;;;;;;5076416;28;20222;-82
2022/06/18 07:14:19;;;;;;;1.65;1.20;;;26.30;79.00;;;;;;5076025;28;20233;-82
2022/06/18 07:16:50;;;;;;;2.90;1.27;;;26.20;77.80;;;;;;5076652;28;20209;-82
2022/06/18 07:19:17;;;;;;;1.92;1.40;;;26.20;78.70;;;;;;5076252;28;20205;-82
2022/06/18 07:21:44;;;;;;;1.23;1.10;;;26.30;80.10;;;;;;5076215;28;20198;-82
2022/06/18 07:24:10;;;;;;;1.42;1.02;;;26.40;80.20;;;;;;5075792;28;20735;-82
2022/06/18 07:26:37;;;;;;;1.67;1.58;;;26.60;80.00;;;;;;5076182;28;20202;-82
2022/06/18 07:29:05;;;;;;;1.20;1.13;;;26.80;79.40;;;;;;5076088;28;20201;-82
2022/06/18 07:31:35;;;;;;;1.50;1.40;;;27.00;78.10;;;;;;5076022;28;20219;-82
2022/06/18 07:34:04;;;;;;;1.05;0.93;;;27.20;77.70;;;;;;5075954;28;20202;-82
2022/06/18 07:36:32;;;;;;;1.80;1.05;;;27.40;77.70;;;;;;5075637;28;20236;-82
2022/06/18 07:38:59;;;;;;;1.67;1.10;;;27.80;77.50;;;;;;5076745;28;20208;-82
2022/06/18 07:41:32;;;;;;;1.52;1.30;;;28.20;74.90;;;;;;5075914;28;20204;-81
2022/06/18 07:43:59;;;;;;;1.10;1.00;;;28.60;70.50;;;;;;5075811;28;20178;-82
2022/06/18 07:46:27;;;;;;;1.23;1.00;;;28.90;70.40;;;;;;5075819;28;20202;-82
2022/06/18 07:48:54;;;;;;;1.17;1.10;;;29.20;69.10;;;;;;5075433;28;20202;-82
2022/06/18 07:51:21;;;;;;;1.15;1.05;;;29.70;67.90;;;;;;5075382;28;20241;-82
2022/06/18 07:53:48;;;;;;;1.10;1.05;;;30.20;68.20;;;;;;5075594;28;20199;-82
2022/06/18 07:56:16;;;;;;;1.10;0.95;;;30.40;65.70;;;;;;5075576;28;20201;-82
2022/06/18 07:58:43;;;;;;;0.90;0.90;;;30.50;61.60;;;;;;5075603;28;20203;-82
2022/06/18 08:01:10;;;;;;;0.90;0.90;;;30.60;62.20;;;;;;5075517;28;20205;-82
2022/06/18 08:03:39;;;;;;;1.40;1.30;;;30.80;62.20;;;;;;5075485;28;20210;-82
2022/06/18 08:06:07;;;;;;;1.10;1.10;;;30.90;59.30;;;;;;5075366;28;20228;-82
2022/06/18 08:08:34;;;;;;;1.40;1.30;;;30.90;59.30;;;;;;5075393;28;20203;-82
2022/06/18 08:11:00;;;;;;;0.73;0.73;;;30.90;58.10;;;;;;5075350;28;20208;-81
2022/06/18 08:13:27;;;;;;;1.00;1.00;;;31.10;58.60;;;;;;5074885;28;20224;-82
2022/06/18 08:15:54;;;;;;;1.50;1.40;;;31.20;57.60;;;;;;5075174;28;20229;-82
2022/06/18 08:18:21;;;;;;;1.08;0.82;;;31.70;58.30;;;;;;5074876;28;20694;-82
2022/06/18 08:20:49;;;;;;;1.08;1.08;;;32.30;55.70;;;;;;5074845;28;20707;-82
2022/06/18 08:23:16;;;;;;;0.77;0.77;;;32.80;56.50;;;;;;5074840;28;20203;-82
2022/06/18 08:25:44;;;;;;;0.80;0.80;;;33.10;53.40;;;;;;5074664;28;20826;-82
2022/06/18 08:28:12;;;;;;;1.35;0.82;;;33.20;52.70;;;;;;5075004;28;20202;-82
2022/06/18 08:30:41;;;;;;;0.77;0.77;;;33.10;52.50;;;;;;5074922;28;20556;-82
2022/06/18 08:33:08;;;;;;;0.93;0.93;;;33.20;53.00;;;;;;5074557;28;20208;-82
2022/06/18 08:35:37;;;;;;;1.63;0.93;;;33.30;51.50;;;;;;5074509;28;20244;-81
2022/06/18 08:38:08;;;;;;;1.20;1.10;;;33.40;51.40;;;;;;5074569;28;20613;-81
2022/06/18 08:40:45;;;;;;;0.90;0.90;;;33.00;50.30;;;;;;5074267;28;20188;-82
2022/06/18 08:43:41;;;;;;;0.80;0.80;;;32.70;52.10;;;;;;5074781;28;20185;-82
2022/06/18 08:46:18;;;;;;;0.90;0.90;;;32.70;50.60;;;;;;5074606;28;20232;-82
2022/06/18 08:49:08;;;;;;;0.80;0.80;;;32.70;51.20;;;;;;5074614;28;20190;-82
2022/06/18 08:51:45;;;;;;;1.00;1.00;;;32.90;51.00;;;;;;5074193;28;20209;-82
2022/06/18 08:54:35;;;;;;;0.82;0.82;;;33.10;48.80;;;;;;5074444;28;20231;-82
2022/06/18 08:57:08;;;;;;;0.90;0.90;;;33.50;49.80;;;;;;5074507;28;20193;-82
2022/06/18 08:59:47;;;;;;;0.93;0.93;;;33.60;48.70;;;;;;5074376;28;20196;-82
2022/06/18 09:02:23;;;;;;;0.88;0.88;;;33.80;48.90;;;;;;5074364;28;20195;-83
2022/06/18 09:05:02;;;;;;;0.85;0.80;;;33.60;50.10;;;;;;5073905;28;20701;-83
2022/06/18 09:08:10;;;;;;;0.73;0.73;;;33.10;49.00;;;;;;5074256;28;20200;-82
2022/06/18 09:10:52;;;;;;;0.70;0.70;;;32.90;49.60;;;;;;5038386;28;20213;-83
2022/06/18 09:13:20;;;;;;;0.75;0.75;;;32.30;48.70;;;;;;5073746;28;20598;-82
2022/06/18 09:15:50;;;;;;;1.00;0.90;;;32.40;49.70;;;;;;5073713;28;20214;-83
2022/06/18 09:18:22;;;;;;;0.90;0.90;;;32.30;49.70;;;;;;5074058;28;20194;-83
2022/06/18 09:20:53;;;;;;;0.80;0.80;;;32.20;50.40;;;;;;5074025;28;20186;-82
2022/06/18 09:23:25;;;;;;;0.98;0.98;;;32.20;50.30;;;;;;5073977;28;20181;-82
2022/06/18 09:25:55;;;;;;;0.85;0.85;;;32.10;51.20;;;;;;5073842;28;20231;-82
2022/06/18 09:28:28;;;;;;;1.27;1.00;;;32.20;47.60;;;;;;5073863;28;20202;-82
2022/06/18 09:31:00;;;;;;;0.80;0.80;;;32.30;47.70;;;;;;5073880;28;20203;-82
2022/06/18 09:33:33;;;;;;;0.82;0.82;;;32.10;48.80;;;;;;5073426;28;20690;-82
2022/06/18 09:36:04;;;;;;;0.70;0.70;;;31.90;49.00;;;;;;5073397;28;20234;-82
2022/06/18 09:38:36;;;;;;;0.90;0.90;;;31.90;49.90;;;;;;5073774;28;20191;-82
2022/06/18 09:41:08;;;;;;;1.00;1.00;;;31.90;50.60;;;;;;5073408;28;20651;-82
2022/06/18 09:43:43;;;;;;;0.88;0.85;;;32.00;50.40;;;;;;5073424;28;20651;-82
2022/06/18 09:46:16;;;;;;;1.42;0.80;;;31.70;49.60;;;;;;5073519;28;20275;-82
2022/06/18 09:48:43;;;;;;;0.70;0.70;;;31.60;50.80;;;;;;5073624;28;20242;-82
2022/06/18 09:51:20;;;;;;;0.70;0.70;;;31.60;50.10;;;;;;5073511;28;20232;-82
2022/06/18 09:53:48;;;;;;;0.68;0.65;;;31.60;49.10;;;;;;5072300;28;20209;-82
2022/06/18 09:56:23;;;;;;;1.00;0.80;;;31.50;49.10;;;;;;5073396;28;20201;-82
2022/06/18 09:58:55;;;;;;;0.88;0.88;;;31.50;49.00;;;;;;5073496;28;20245;-82
2022/06/18 10:01:27;;;;;;;0.88;0.88;;;31.40;49.20;;;;;;5073441;28;20188;-82
2022/06/18 10:06:58;;;;;;;0.60;0.60;;;31.60;46.90;;;;;;5073464;28;20181;-82
2022/06/18 10:09:29;;;;;;;0.88;0.88;;;31.70;46.20;;;;;;5073368;28;20192;-82
2022/06/18 10:11:58;;;;;;;0.73;0.73;;;31.50;46.50;;;;;;5073292;28;20188;-82
2022/06/18 10:14:25;;;;;;;1.00;0.90;;;31.60;48.20;;;;;;5072928;28;20721;-81
2022/06/18 10:17:12;;;;;;;0.95;0.90;;;31.70;48.40;;;;;;5073077;28;20200;-82
2022/06/18 10:19:50;;;;;;;0.90;0.90;;;31.80;48.10;;;;;;5073067;28;20175;-82
2022/06/18 10:22:26;;;;;;;0.70;0.70;;;31.90;48.30;;;;;;5073269;28;20197;-81
2022/06/18 10:25:02;;;;;;;0.73;0.73;;;31.90;48.70;;;;;;5073168;28;20235;-81
2022/06/18 10:27:37;;;;;;;1.00;0.75;;;31.80;47.70;;;;;;5072978;28;20182;-82
2022/06/18 10:30:08;;;;;;;0.80;0.80;;;31.80;47.90;;;;;;5072924;28;20189;-81
2022/06/18 10:32:53;;;;;;;0.80;0.80;;;31.80;48.60;;;;;;5073122;28;20219;-82
2022/06/18 10:35:33;;;;;;;0.68;0.68;;;31.90;48.00;;;;;;5072598;28;20716;-82
2022/06/18 10:38:13;;;;;;;0.60;0.60;;;32.00;47.60;;;;;;5073170;28;20190;-82
2022/06/18 10:40:51;;;;;;;0.70;0.70;;;32.00;49.70;;;;;;5072744;28;20550;-82
2022/06/18 10:43:40;;;;;;;0.82;0.80;;;32.10;47.90;;;;;;5072791;28;20641;-81
2022/06/18 10:46:11;;;;;;;1.52;0.90;;;32.10;47.70;;;;;;5073507;28;20228;-82
2022/06/18 10:48:38;;;;;;;1.95;0.80;;;32.10;48.10;;;;;;5072736;28;20193;-81
2022/06/18 10:51:04;;;;;;;0.80;0.80;;;32.00;48.00;;;;;;5072857;28;20572;-82
2022/06/18 10:53:45;;;;;;;0.70;0.70;;;32.00;48.30;;;;;;5072795;28;20225;-82
2022/06/18 10:56:16;;;;;;;0.75;0.75;;;32.30;46.60;;;;;;5072815;28;20207;-82
2022/06/18 10:58:49;;;;;;;0.70;0.70;;;32.60;46.80;;;;;;5072581;28;20175;-82
2022/06/18 11:01:22;;;;;;;1.13;1.13;;;32.90;48.30;;;;;;5072494;28;20196;-82
2022/06/18 11:04:00;;;;;;;0.70;0.70;;;33.30;47.30;;;;;;5073693;28;20181;-81
2022/06/18 11:06:28;;;;;;;0.65;0.65;;;33.60;46.10;;;;;;5076511;28;20216;-82
2022/06/18 11:08:58;;;;;;;0.70;0.70;;;33.80;45.80;;;;;;5076146;28;20810;-81
2022/06/18 11:11:28;;;;;;;0.60;0.60;;;33.90;43.80;;;;;;5076405;28;20208;-81
2022/06/18 11:13:56;;;;;;;0.68;0.68;;;34.00;44.10;;;;;;5076206;28;20213;-81
2022/06/18 11:16:26;;;;;;;0.75;0.70;;;33.70;44.50;;;;;;5076251;28;20213;-81
2022/06/18 11:18:55;;;;;;;0.70;0.70;;;33.30;45.30;;;;;;5076246;28;20205;-81
2022/06/18 11:21:31;;;;;;;0.82;0.82;;;33.20;45.00;;;;;;5076112;28;20213;-82
2022/06/18 11:24:01;;;;;;;0.70;0.70;;;32.90;46.30;;;;;;5076053;28;20197;-82
2022/06/18 11:26:29;;;;;;;0.60;0.60;;;32.80;45.40;;;;;;5076044;28;20207;-81
2022/06/18 11:29:04;;;;;;;0.68;0.68;;;32.70;44.50;;;;;;5076065;28;20204;-82
2022/06/18 11:31:34;;;;;;;0.50;0.50;;;32.60;45.00;;;;;;5075981;28;20197;-82
2022/06/18 11:34:03;;;;;;;0.60;0.60;;;32.40;45.30;;;;;;5076061;28;20219;-81
2022/06/18 11:36:46;;;;;;;1.05;0.60;;;32.30;46.00;;;;;;5075379;28;20265;-81
2022/06/18 11:39:30;;;;;;;1.00;0.70;;;32.30;46.00;;;;;;5075594;28;20190;-82
2022/06/18 11:42:02;;;;;;;0.80;0.75;;;32.30;46.30;;;;;;5075571;28;20534;-81
2022/06/18 11:44:36;;;;;;;1.13;1.10;;;32.30;47.70;;;;;;5075757;28;20221;-82
2022/06/18 11:47:09;;;;;;;1.08;0.98;;;32.30;47.20;;;;;;5075885;28;20185;-81
2022/06/18 11:49:41;;;;;;;1.00;0.90;;;32.20;48.00;;;;;;5075806;28;20213;-81
2022/06/18 11:52:15;;;;;;;1.40;1.30;;;32.10;49.00;;;;;;5075510;28;20194;-81
2022/06/18 11:54:51;;;;;;;1.58;0.90;;;32.10;48.80;;;;;;5075590;28;20229;-81
2022/06/18 11:57:24;;;;;;;1.00;0.98;;;32.10;50.20;;;;;;5075689;28;20192;-82
2022/06/18 12:00:04;;;;;;;1.05;0.95;;;32.00;50.50;;;;;;5075345;28;20192;-80
2022/06/18 12:02:46;;;;;;;1.83;0.80;;;32.00;49.90;;;;;;5075577;28;20192;-81
2022/06/18 12:05:20;;;;;;;0.95;0.90;;;32.00;50.30;;;;;;5075174;28;20703;-82
2022/06/18 12:07:52;;;;;;;3.03;1.30;;;31.90;49.90;;;;;;5075204;28;20639;-81
2022/06/18 12:10:19;;;;;;;1.88;1.10;;;31.90;49.50;;;;;;5075447;28;20195;-81
2022/06/18 12:13:04;;;;;;;0.93;0.82;;;31.80;49.90;;;;;;5075305;28;20229;-81
2022/06/18 12:15:40;;;;;;;2.50;1.65;;;31.80;49.40;;;;;;5074556;28;20223;-81
2022/06/18 12:18:14;;;;;;;1.25;0.88;;;31.80;49.90;;;;;;5075616;28;20188;-81
2022/06/18 12:20:54;;;;;;;0.75;0.75;;;31.80;50.60;;;;;;5075389;28;20192;-81
2022/06/18 12:23:31;;;;;;;3.05;1.00;;;31.80;50.80;;;;;;5075419;28;20194;-82
2022/06/18 12:26:04;;;;;;;6.18;0.90;;;31.80;49.90;;;;;;5075148;28;20318;-82
2022/06/18 12:28:39;;;;;;;0.73;0.73;;;31.80;49.70;;;;;;5075098;28;20191;-81
2022/06/18 12:31:12;;;;;;;0.82;0.82;;;31.70;48.70;;;;;;5075099;28;20191;-82
2022/06/18 12:33:50;;;;;;;1.10;1.10;;;31.70;48.20;;;;;;5074615;28;20209;-82
2022/06/18 12:36:22;;;;;;;1.33;0.80;;;31.60;49.00;;;;;;5074656;28;20314;-82
2022/06/18 12:38:58;;;;;;;0.70;0.70;;;31.50;48.90;;;;;;5074920;28;20192;-82
2022/06/18 12:41:40;;;;;;;1.25;0.80;;;31.40;48.80;;;;;;5074523;28;20188;-82
2022/06/18 12:44:20;;;;;;;0.82;0.80;;;31.40;49.70;;;;;;5074718;28;20222;-82
2022/06/18 12:46:56;;;;;;;0.75;0.75;;;31.30;50.70;;;;;;5074437;28;20192;-82
2022/06/18 12:49:32;;;;;;;1.27;1.10;;;31.40;50.20;;;;;;5074700;28;20196;-80
2022/06/18 12:52:08;;;;;;;1.00;1.00;;;31.30;51.10;;;;;;5074641;28;20193;-81
2022/06/18 12:54:53;;;;;;;2.67;0.90;;;31.30;49.30;;;;;;5074382;28;20234;-80
2022/06/18 12:57:27;;;;;;;0.80;0.80;;;31.30;49.80;;;;;;5074483;28;20188;-80
2022/06/18 13:00:03;;;;;;;0.70;0.70;;;31.20;51.60;;;;;;5074470;28;20186;-80
2022/06/18 13:02:45;;;;;;;1.38;1.15;;;31.30;49.40;;;;;;5074344;28;20186;-80
2022/06/18 13:05:24;;;;;;;4.13;1.00;;;31.40;50.00;;;;;;5074256;28;20239;-80
2022/06/18 13:08:04;;;;;;;0.80;0.70;;;31.60;49.30;;;;;;5074301;28;20558;-80
2022/06/18 13:10:37;;;;;;;0.75;0.75;;;31.60;48.40;;;;;;5074249;28;20186;-80
2022/06/18 13:13:27;;;;;;;2.47;1.35;;;31.60;49.10;;;;;;5074135;28;20214;-80
2022/06/18 13:15:59;;;;;;;3.20;1.10;;;31.50;48.50;;;;;;5074025;28;20250;-80
2022/06/18 13:18:32;;;;;;;2.40;0.70;;;31.40;49.40;;;;;;5073876;28;20179;-81
2022/06/18 13:21:02;;;;;;;1.30;1.08;;;31.40;49.90;;;;;;5074071;28;20191;-81